sensor_id;sensor_type;location;lat;lon;timestamp;P1;durP1;ratioP1;P2;durP2;ratioP2
14400;SDS011;7285;50.894;5.462;2024-02-28T00:02:17;3.13;;;3.03;;
14400;SDS011;7285;50.894;5.462;2024-02-28T00:04:44;3.33;;;3.23;;
14400;SDS011;7285;50.894;5.462;2024-02-28T00:07:11;4.90;;;4.70;;
14400;SDS011;7285;50.894;5.462;2024-02-28T00:09:39;5.50;;;3.07;;
14400;SDS011;7285;50.894;5.462;2024-02-28T00:12:06;4.27;;;4.17;;
14400;SDS011;7285;50.894;5.462;2024-02-28T00:14:35;3.50;;;3.40;;
14400;SDS011;7285;50.894;5.462;2024-02-28T00:17:02;1.93;;;1.83;;
14400;SDS011;7285;50.894;5.462;2024-02-28T00:19:29;3.63;;;3.53;;
14400;SDS011;7285;50.894;5.462;2024-02-28T00:21:56;3.80;;;3.70;;
14400;SDS011;7285;50.894;5.462;2024-02-28T00:24:25;3.70;;;3.57;;
14400;SDS011;7285;50.894;5.462;2024-02-28T00:26:53;2.47;;;2.47;;
14400;SDS011;7285;50.894;5.462;2024-02-28T00:29:20;3.17;;;3.07;;
14400;SDS011;7285;50.894;5.462;2024-02-28T00:31:47;3.07;;;2.97;;
14400;SDS011;7285;50.894;5.462;2024-02-28T00:34:14;3.93;;;3.57;;
14400;SDS011;7285;50.894;5.462;2024-02-28T00:36:41;3.73;;;3.60;;
14400;SDS011;7285;50.894;5.462;2024-02-28T00:39:08;1.93;;;1.93;;
14400;SDS011;7285;50.894;5.462;2024-02-28T00:41:36;2.47;;;2.37;;
14400;SDS011;7285;50.894;5.462;2024-02-28T00:44:05;2.07;;;2.07;;
14400;SDS011;7285;50.894;5.462;2024-02-28T00:46:31;2.13;;;2.13;;
14400;SDS011;7285;50.894;5.462;2024-02-28T00:48:58;3.10;;;3.00;;
14400;SDS011;7285;50.894;5.462;2024-02-28T00:51:25;3.87;;;2.97;;
14400;SDS011;7285;50.894;5.462;2024-02-28T00:53:52;3.43;;;3.33;;
14400;SDS011;7285;50.894;5.462;2024-02-28T00:56:19;6.93;;;4.60;;
14400;SDS011;7285;50.894;5.462;2024-02-28T00:58:46;2.63;;;2.63;;
14400;SDS011;7285;50.894;5.462;2024-02-28T01:01:14;3.37;;;3.27;;
14400;SDS011;7285;50.894;5.462;2024-02-28T01:03:41;2.27;;;2.23;;
14400;SDS011;7285;50.894;5.462;2024-02-28T01:06:08;2.10;;;2.10;;
14400;SDS011;7285;50.894;5.462;2024-02-28T01:08:35;4.47;;;4.27;;
14400;SDS011;7285;50.894;5.462;2024-02-28T01:11:02;4.43;;;4.23;;
14400;SDS011;7285;50.894;5.462;2024-02-28T01:13:29;3.23;;;3.03;;
14400;SDS011;7285;50.894;5.462;2024-02-28T01:15:56;3.17;;;3.07;;
14400;SDS011;7285;50.894;5.462;2024-02-28T01:18:26;4.23;;;4.03;;
14400;SDS011;7285;50.894;5.462;2024-02-28T01:20:55;3.23;;;3.00;;
14400;SDS011;7285;50.894;5.462;2024-02-28T01:23:22;2.63;;;2.63;;
14400;SDS011;7285;50.894;5.462;2024-02-28T01:25:49;3.97;;;3.87;;
14400;SDS011;7285;50.894;5.462;2024-02-28T01:28:16;4.83;;;4.27;;
14400;SDS011;7285;50.894;5.462;2024-02-28T01:30:43;2.23;;;2.20;;
14400;SDS011;7285;50.894;5.462;2024-02-28T01:33:11;3.10;;;3.00;;
14400;SDS011;7285;50.894;5.462;2024-02-28T01:35:40;3.20;;;3.10;;
14400;SDS011;7285;50.894;5.462;2024-02-28T01:38:07;3.40;;;3.30;;
14400;SDS011;7285;50.894;5.462;2024-02-28T01:40:34;2.50;;;2.40;;
14400;SDS011;7285;50.894;5.462;2024-02-28T01:43:04;2.20;;;2.20;;
14400;SDS011;7285;50.894;5.462;2024-02-28T01:45:33;2.77;;;2.73;;
14400;SDS011;7285;50.894;5.462;2024-02-28T01:48:00;3.67;;;3.47;;
14400;SDS011;7285;50.894;5.462;2024-02-28T01:50:28;3.87;;;3.77;;
14400;SDS011;7285;50.894;5.462;2024-02-28T01:52:56;2.10;;;2.10;;
14400;SDS011;7285;50.894;5.462;2024-02-28T01:55:24;2.40;;;2.40;;
14400;SDS011;7285;50.894;5.462;2024-02-28T01:57:51;3.47;;;3.37;;
14400;SDS011;7285;50.894;5.462;2024-02-28T02:00:19;1.57;;;1.57;;
14400;SDS011;7285;50.894;5.462;2024-02-28T02:02:47;2.63;;;2.57;;
14400;SDS011;7285;50.894;5.462;2024-02-28T02:05:15;2.83;;;2.73;;
14400;SDS011;7285;50.894;5.462;2024-02-28T02:07:45;2.27;;;2.27;;
14400;SDS011;7285;50.894;5.462;2024-02-28T02:10:15;2.67;;;2.47;;
14400;SDS011;7285;50.894;5.462;2024-02-28T02:12:42;2.13;;;2.13;;
14400;SDS011;7285;50.894;5.462;2024-02-28T02:15:08;2.73;;;2.63;;
14400;SDS011;7285;50.894;5.462;2024-02-28T02:17:36;2.10;;;2.00;;
14400;SDS011;7285;50.894;5.462;2024-02-28T02:20:03;3.20;;;3.10;;
14400;SDS011;7285;50.894;5.462;2024-02-28T02:22:34;3.03;;;2.93;;
14400;SDS011;7285;50.894;5.462;2024-02-28T02:25:03;2.63;;;2.53;;
14400;SDS011;7285;50.894;5.462;2024-02-28T02:27:31;2.47;;;2.47;;
14400;SDS011;7285;50.894;5.462;2024-02-28T02:29:58;2.80;;;2.77;;
14400;SDS011;7285;50.894;5.462;2024-02-28T02:32:24;2.00;;;1.93;;
14400;SDS011;7285;50.894;5.462;2024-02-28T02:34:51;2.00;;;1.97;;
14400;SDS011;7285;50.894;5.462;2024-02-28T02:37:18;1.87;;;1.87;;
14400;SDS011;7285;50.894;5.462;2024-02-28T02:39:46;1.97;;;1.97;;
14400;SDS011;7285;50.894;5.462;2024-02-28T02:42:13;4.17;;;4.03;;
14400;SDS011;7285;50.894;5.462;2024-02-28T02:44:41;3.07;;;2.97;;
14400;SDS011;7285;50.894;5.462;2024-02-28T02:47:08;3.37;;;3.27;;
14400;SDS011;7285;50.894;5.462;2024-02-28T02:49:35;2.60;;;2.50;;
14400;SDS011;7285;50.894;5.462;2024-02-28T02:52:02;1.90;;;1.87;;
14400;SDS011;7285;50.894;5.462;2024-02-28T02:54:29;2.67;;;2.57;;
14400;SDS011;7285;50.894;5.462;2024-02-28T02:56:58;2.83;;;2.73;;
14400;SDS011;7285;50.894;5.462;2024-02-28T02:59:24;3.10;;;3.00;;
14400;SDS011;7285;50.894;5.462;2024-02-28T03:01:52;2.67;;;2.57;;
14400;SDS011;7285;50.894;5.462;2024-02-28T03:04:19;3.13;;;2.93;;
14400;SDS011;7285;50.894;5.462;2024-02-28T03:06:46;3.90;;;3.77;;
14400;SDS011;7285;50.894;5.462;2024-02-28T03:09:12;2.13;;;2.10;;
14400;SDS011;7285;50.894;5.462;2024-02-28T03:11:39;2.37;;;2.33;;
14400;SDS011;7285;50.894;5.462;2024-02-28T03:14:08;2.53;;;2.53;;
14400;SDS011;7285;50.894;5.462;2024-02-28T03:16:35;2.00;;;1.90;;
14400;SDS011;7285;50.894;5.462;2024-02-28T03:19:02;2.57;;;2.47;;
14400;SDS011;7285;50.894;5.462;2024-02-28T03:21:30;2.67;;;2.57;;
14400;SDS011;7285;50.894;5.462;2024-02-28T03:23:57;1.77;;;1.77;;
14400;SDS011;7285;50.894;5.462;2024-02-28T03:26:24;2.03;;;2.03;;
14400;SDS011;7285;50.894;5.462;2024-02-28T03:28:50;2.60;;;2.53;;
14400;SDS011;7285;50.894;5.462;2024-02-28T03:31:19;2.20;;;2.20;;
14400;SDS011;7285;50.894;5.462;2024-02-28T03:33:46;2.93;;;2.83;;
14400;SDS011;7285;50.894;5.462;2024-02-28T03:36:13;2.33;;;2.23;;
14400;SDS011;7285;50.894;5.462;2024-02-28T03:38:39;2.17;;;2.17;;
14400;SDS011;7285;50.894;5.462;2024-02-28T03:41:06;3.17;;;3.07;;
14400;SDS011;7285;50.894;5.462;2024-02-28T03:43:34;2.47;;;2.47;;
14400;SDS011;7285;50.894;5.462;2024-02-28T03:46:00;2.03;;;2.03;;
14400;SDS011;7285;50.894;5.462;2024-02-28T03:48:29;1.60;;;1.60;;
14400;SDS011;7285;50.894;5.462;2024-02-28T03:50:56;2.77;;;2.67;;
14400;SDS011;7285;50.894;5.462;2024-02-28T03:53:23;1.87;;;1.87;;
14400;SDS011;7285;50.894;5.462;2024-02-28T03:55:50;2.00;;;2.00;;
14400;SDS011;7285;50.894;5.462;2024-02-28T03:58:16;2.93;;;2.83;;
14400;SDS011;7285;50.894;5.462;2024-02-28T04:00:43;3.37;;;3.27;;
14400;SDS011;7285;50.894;5.462;2024-02-28T04:03:11;1.70;;;1.70;;
14400;SDS011;7285;50.894;5.462;2024-02-28T04:05:40;2.63;;;2.43;;
14400;SDS011;7285;50.894;5.462;2024-02-28T04:08:07;1.80;;;1.80;;
14400;SDS011;7285;50.894;5.462;2024-02-28T04:10:34;3.20;;;2.80;;
14400;SDS011;7285;50.894;5.462;2024-02-28T04:13:01;1.93;;;1.83;;
14400;SDS011;7285;50.894;5.462;2024-02-28T04:15:28;1.73;;;1.73;;
14400;SDS011;7285;50.894;5.462;2024-02-28T04:17:56;2.37;;;2.00;;
14400;SDS011;7285;50.894;5.462;2024-02-28T04:20:23;3.07;;;2.97;;
14400;SDS011;7285;50.894;5.462;2024-02-28T04:22:51;2.90;;;2.80;;
14400;SDS011;7285;50.894;5.462;2024-02-28T04:25:18;1.97;;;1.97;;
14400;SDS011;7285;50.894;5.462;2024-02-28T04:27:45;2.77;;;2.37;;
14400;SDS011;7285;50.894;5.462;2024-02-28T04:30:12;2.17;;;2.17;;
14400;SDS011;7285;50.894;5.462;2024-02-28T04:32:39;6.43;;;2.33;;
14400;SDS011;7285;50.894;5.462;2024-02-28T04:35:06;2.27;;;2.27;;
14400;SDS011;7285;50.894;5.462;2024-02-28T04:37:34;2.50;;;2.40;;
14400;SDS011;7285;50.894;5.462;2024-02-28T04:40:03;2.20;;;2.20;;
14400;SDS011;7285;50.894;5.462;2024-02-28T04:42:31;3.10;;;3.00;;
14400;SDS011;7285;50.894;5.462;2024-02-28T04:44:58;2.77;;;2.67;;
14400;SDS011;7285;50.894;5.462;2024-02-28T04:47:25;2.87;;;2.53;;
14400;SDS011;7285;50.894;5.462;2024-02-28T04:49:52;2.30;;;2.23;;
14400;SDS011;7285;50.894;5.462;2024-02-28T04:52:19;1.70;;;1.70;;
14400;SDS011;7285;50.894;5.462;2024-02-28T04:54:47;2.83;;;2.67;;
14400;SDS011;7285;50.894;5.462;2024-02-28T04:57:15;2.17;;;2.07;;
14400;SDS011;7285;50.894;5.462;2024-02-28T04:59:43;2.30;;;2.30;;
14400;SDS011;7285;50.894;5.462;2024-02-28T05:02:11;1.97;;;1.97;;
14400;SDS011;7285;50.894;5.462;2024-02-28T05:04:38;2.87;;;2.77;;
14400;SDS011;7285;50.894;5.462;2024-02-28T05:07:05;2.33;;;2.33;;
14400;SDS011;7285;50.894;5.462;2024-02-28T05:09:32;4.07;;;2.47;;
14400;SDS011;7285;50.894;5.462;2024-02-28T05:11:59;2.70;;;2.60;;
14400;SDS011;7285;50.894;5.462;2024-02-28T05:14:27;2.60;;;2.50;;
14400;SDS011;7285;50.894;5.462;2024-02-28T05:16:54;2.40;;;2.37;;
14400;SDS011;7285;50.894;5.462;2024-02-28T05:19:21;2.43;;;2.43;;
14400;SDS011;7285;50.894;5.462;2024-02-28T05:21:48;2.43;;;2.33;;
14400;SDS011;7285;50.894;5.462;2024-02-28T05:24:15;2.30;;;2.30;;
14400;SDS011;7285;50.894;5.462;2024-02-28T05:26:43;3.40;;;3.30;;
14400;SDS011;7285;50.894;5.462;2024-02-28T05:29:08;1.77;;;1.63;;
14400;SDS011;7285;50.894;5.462;2024-02-28T05:31:37;3.03;;;2.93;;
14400;SDS011;7285;50.894;5.462;2024-02-28T05:34:04;6.20;;;2.57;;
14400;SDS011;7285;50.894;5.462;2024-02-28T05:36:31;2.20;;;2.10;;
14400;SDS011;7285;50.894;5.462;2024-02-28T05:38:59;3.60;;;2.53;;
14400;SDS011;7285;50.894;5.462;2024-02-28T05:41:27;2.70;;;2.70;;
14400;SDS011;7285;50.894;5.462;2024-02-28T05:43:54;3.60;;;3.50;;
14400;SDS011;7285;50.894;5.462;2024-02-28T05:46:21;2.80;;;2.70;;
14400;SDS011;7285;50.894;5.462;2024-02-28T05:48:50;1.80;;;1.80;;
14400;SDS011;7285;50.894;5.462;2024-02-28T05:51:17;2.63;;;2.43;;
14400;SDS011;7285;50.894;5.462;2024-02-28T05:53:44;2.77;;;2.67;;
14400;SDS011;7285;50.894;5.462;2024-02-28T05:56:11;5.03;;;2.73;;
14400;SDS011;7285;50.894;5.462;2024-02-28T05:58:40;1.63;;;1.63;;
14400;SDS011;7285;50.894;5.462;2024-02-28T06:01:08;2.43;;;2.43;;
14400;SDS011;7285;50.894;5.462;2024-02-28T06:03:35;2.10;;;2.10;;
14400;SDS011;7285;50.894;5.462;2024-02-28T06:06:04;2.10;;;2.00;;
14400;SDS011;7285;50.894;5.462;2024-02-28T06:08:32;2.37;;;2.27;;
14400;SDS011;7285;50.894;5.462;2024-02-28T06:10:59;2.23;;;2.23;;
14400;SDS011;7285;50.894;5.462;2024-02-28T06:13:26;3.27;;;3.07;;
14400;SDS011;7285;50.894;5.462;2024-02-28T06:15:53;2.50;;;2.43;;
14400;SDS011;7285;50.894;5.462;2024-02-28T06:18:20;3.33;;;3.03;;
14400;SDS011;7285;50.894;5.462;2024-02-28T06:20:48;1.80;;;1.80;;
14400;SDS011;7285;50.894;5.462;2024-02-28T06:23:16;2.73;;;2.63;;
14400;SDS011;7285;50.894;5.462;2024-02-28T06:25:43;2.17;;;2.17;;
14400;SDS011;7285;50.894;5.462;2024-02-28T06:28:10;1.80;;;1.80;;
14400;SDS011;7285;50.894;5.462;2024-02-28T06:30:37;2.00;;;2.00;;
14400;SDS011;7285;50.894;5.462;2024-02-28T06:33:04;1.63;;;1.63;;
14400;SDS011;7285;50.894;5.462;2024-02-28T06:35:31;1.77;;;1.77;;
14400;SDS011;7285;50.894;5.462;2024-02-28T06:37:58;2.90;;;2.80;;
14400;SDS011;7285;50.894;5.462;2024-02-28T06:40:26;1.67;;;1.67;;
14400;SDS011;7285;50.894;5.462;2024-02-28T06:42:54;3.73;;;3.60;;
14400;SDS011;7285;50.894;5.462;2024-02-28T06:45:21;1.70;;;1.70;;
14400;SDS011;7285;50.894;5.462;2024-02-28T06:47:48;2.40;;;2.40;;
14400;SDS011;7285;50.894;5.462;2024-02-28T06:50:14;1.93;;;1.93;;
14400;SDS011;7285;50.894;5.462;2024-02-28T06:52:41;3.17;;;3.07;;
14400;SDS011;7285;50.894;5.462;2024-02-28T06:55:08;3.00;;;2.87;;
14400;SDS011;7285;50.894;5.462;2024-02-28T06:57:37;2.27;;;2.27;;
14400;SDS011;7285;50.894;5.462;2024-02-28T07:00:06;3.00;;;2.90;;
14400;SDS011;7285;50.894;5.462;2024-02-28T07:02:34;2.97;;;2.87;;
14400;SDS011;7285;50.894;5.462;2024-02-28T07:05:01;1.60;;;1.60;;
14400;SDS011;7285;50.894;5.462;2024-02-28T07:07:29;2.47;;;2.43;;
14400;SDS011;7285;50.894;5.462;2024-02-28T07:09:56;2.53;;;2.33;;
14400;SDS011;7285;50.894;5.462;2024-02-28T07:12:23;2.50;;;2.40;;
14400;SDS011;7285;50.894;5.462;2024-02-28T07:14:52;3.80;;;3.67;;
14400;SDS011;7285;50.894;5.462;2024-02-28T07:17:20;1.97;;;1.87;;
14400;SDS011;7285;50.894;5.462;2024-02-28T07:19:47;2.73;;;2.63;;
14400;SDS011;7285;50.894;5.462;2024-02-28T07:22:14;2.47;;;2.37;;
14400;SDS011;7285;50.894;5.462;2024-02-28T07:24:41;2.30;;;2.30;;
14400;SDS011;7285;50.894;5.462;2024-02-28T07:27:08;1.57;;;1.57;;
14400;SDS011;7285;50.894;5.462;2024-02-28T07:29:36;1.50;;;1.50;;
14400;SDS011;7285;50.894;5.462;2024-02-28T07:32:04;1.73;;;1.73;;
14400;SDS011;7285;50.894;5.462;2024-02-28T07:34:31;1.53;;;1.53;;
14400;SDS011;7285;50.894;5.462;2024-02-28T07:36:59;2.30;;;2.20;;
14400;SDS011;7285;50.894;5.462;2024-02-28T07:39:26;1.93;;;1.93;;
14400;SDS011;7285;50.894;5.462;2024-02-28T07:41:53;2.23;;;2.03;;
14400;SDS011;7285;50.894;5.462;2024-02-28T07:44:20;2.10;;;1.80;;
14400;SDS011;7285;50.894;5.462;2024-02-28T07:46:47;2.97;;;2.83;;
14400;SDS011;7285;50.894;5.462;2024-02-28T07:49:17;2.50;;;2.40;;
14400;SDS011;7285;50.894;5.462;2024-02-28T07:51:44;1.53;;;1.53;;
14400;SDS011;7285;50.894;5.462;2024-02-28T07:54:11;1.50;;;1.50;;
14400;SDS011;7285;50.894;5.462;2024-02-28T07:56:38;2.07;;;2.07;;
14400;SDS011;7285;50.894;5.462;2024-02-28T07:59:04;2.00;;;1.90;;
14400;SDS011;7285;50.894;5.462;2024-02-28T08:01:31;1.97;;;1.97;;
14400;SDS011;7285;50.894;5.462;2024-02-28T08:03:59;2.77;;;2.63;;
14400;SDS011;7285;50.894;5.462;2024-02-28T08:06:28;1.60;;;1.60;;
14400;SDS011;7285;50.894;5.462;2024-02-28T08:08:56;1.70;;;1.70;;
14400;SDS011;7285;50.894;5.462;2024-02-28T08:11:23;1.80;;;1.80;;
14400;SDS011;7285;50.894;5.462;2024-02-28T08:13:50;1.80;;;1.80;;
14400;SDS011;7285;50.894;5.462;2024-02-28T08:16:17;1.27;;;1.27;;
14400;SDS011;7285;50.894;5.462;2024-02-28T08:18:44;2.53;;;2.43;;
14400;SDS011;7285;50.894;5.462;2024-02-28T08:21:11;1.90;;;1.90;;
14400;SDS011;7285;50.894;5.462;2024-02-28T08:23:39;2.53;;;2.50;;
14400;SDS011;7285;50.894;5.462;2024-02-28T08:26:06;2.13;;;2.13;;
14400;SDS011;7285;50.894;5.462;2024-02-28T08:28:33;1.87;;;1.87;;
14400;SDS011;7285;50.894;5.462;2024-02-28T08:31:00;2.27;;;2.17;;
14400;SDS011;7285;50.894;5.462;2024-02-28T08:33:26;2.57;;;2.57;;
14400;SDS011;7285;50.894;5.462;2024-02-28T08:35:53;2.07;;;1.97;;
14400;SDS011;7285;50.894;5.462;2024-02-28T08:38:20;7.37;;;3.77;;
14400;SDS011;7285;50.894;5.462;2024-02-28T08:40:48;2.23;;;2.17;;
14400;SDS011;7285;50.894;5.462;2024-02-28T08:43:15;2.17;;;2.17;;
14400;SDS011;7285;50.894;5.462;2024-02-28T08:45:42;2.83;;;2.73;;
14400;SDS011;7285;50.894;5.462;2024-02-28T08:48:09;2.93;;;2.73;;
14400;SDS011;7285;50.894;5.462;2024-02-28T08:50:36;4.50;;;1.93;;
14400;SDS011;7285;50.894;5.462;2024-02-28T08:53:03;3.17;;;3.07;;
14400;SDS011;7285;50.894;5.462;2024-02-28T08:55:30;2.83;;;2.73;;
14400;SDS011;7285;50.894;5.462;2024-02-28T08:57:58;3.87;;;3.67;;
14400;SDS011;7285;50.894;5.462;2024-02-28T09:00:25;2.07;;;1.97;;
14400;SDS011;7285;50.894;5.462;2024-02-28T09:02:52;2.43;;;2.33;;
14400;SDS011;7285;50.894;5.462;2024-02-28T09:05:19;1.83;;;1.83;;
14400;SDS011;7285;50.894;5.462;2024-02-28T09:07:46;3.77;;;3.60;;
14400;SDS011;7285;50.894;5.462;2024-02-28T09:10:16;2.13;;;2.03;;
14400;SDS011;7285;50.894;5.462;2024-02-28T09:12:46;2.27;;;2.17;;
14400;SDS011;7285;50.894;5.462;2024-02-28T09:15:14;1.20;;;1.20;;
14400;SDS011;7285;50.894;5.462;2024-02-28T09:17:41;3.70;;;3.57;;
14400;SDS011;7285;50.894;5.462;2024-02-28T09:20:08;1.67;;;1.67;;
14400;SDS011;7285;50.894;5.462;2024-02-28T09:22:36;1.67;;;1.57;;
14400;SDS011;7285;50.894;5.462;2024-02-28T09:25:04;2.17;;;2.07;;
14400;SDS011;7285;50.894;5.462;2024-02-28T09:27:33;2.30;;;2.23;;
14400;SDS011;7285;50.894;5.462;2024-02-28T09:30:00;12.83;;;2.60;;
14400;SDS011;7285;50.894;5.462;2024-02-28T09:32:29;3.33;;;2.40;;
14400;SDS011;7285;50.894;5.462;2024-02-28T09:34:56;3.67;;;3.47;;
14400;SDS011;7285;50.894;5.462;2024-02-28T09:37:23;2.77;;;2.67;;
14400;SDS011;7285;50.894;5.462;2024-02-28T09:39:50;1.10;;;1.10;;
14400;SDS011;7285;50.894;5.462;2024-02-28T09:42:17;1.87;;;1.20;;
14400;SDS011;7285;50.894;5.462;2024-02-28T09:44:45;2.37;;;1.97;;
14400;SDS011;7285;50.894;5.462;2024-02-28T09:47:13;1.40;;;1.40;;
14400;SDS011;7285;50.894;5.462;2024-02-28T09:49:41;1.63;;;1.53;;
14400;SDS011;7285;50.894;5.462;2024-02-28T09:52:08;2.47;;;2.27;;
14400;SDS011;7285;50.894;5.462;2024-02-28T09:54:35;1.60;;;1.60;;
14400;SDS011;7285;50.894;5.462;2024-02-28T09:57:02;1.93;;;1.90;;
14400;SDS011;7285;50.894;5.462;2024-02-28T09:59:31;1.93;;;1.93;;
14400;SDS011;7285;50.894;5.462;2024-02-28T10:01:59;3.13;;;2.93;;
14400;SDS011;7285;50.894;5.462;2024-02-28T10:04:28;1.90;;;1.80;;
14400;SDS011;7285;50.894;5.462;2024-02-28T10:06:57;2.50;;;2.40;;
14400;SDS011;7285;50.894;5.462;2024-02-28T10:09:24;2.70;;;1.80;;
14400;SDS011;7285;50.894;5.462;2024-02-28T10:11:51;6.63;;;2.50;;
14400;SDS011;7285;50.894;5.462;2024-02-28T10:14:18;1.93;;;1.83;;
14400;SDS011;7285;50.894;5.462;2024-02-28T10:16:45;3.07;;;2.87;;
14400;SDS011;7285;50.894;5.462;2024-02-28T10:19:12;7.27;;;3.13;;
14400;SDS011;7285;50.894;5.462;2024-02-28T10:21:39;2.63;;;2.23;;
14400;SDS011;7285;50.894;5.462;2024-02-28T10:24:07;2.50;;;2.40;;
14400;SDS011;7285;50.894;5.462;2024-02-28T10:26:44;7.63;;;3.03;;
14400;SDS011;7285;50.894;5.462;2024-02-28T10:29:13;2.37;;;2.20;;
14400;SDS011;7285;50.894;5.462;2024-02-28T10:31:41;1.43;;;1.43;;
14400;SDS011;7285;50.894;5.462;2024-02-28T10:34:09;5.30;;;3.43;;
14400;SDS011;7285;50.894;5.462;2024-02-28T10:36:36;3.00;;;2.80;;
14400;SDS011;7285;50.894;5.462;2024-02-28T10:39:03;3.50;;;3.23;;
14400;SDS011;7285;50.894;5.462;2024-02-28T10:41:33;2.90;;;2.77;;
14400;SDS011;7285;50.894;5.462;2024-02-28T10:44:01;2.83;;;2.70;;
14400;SDS011;7285;50.894;5.462;2024-02-28T10:46:28;3.50;;;3.30;;
14400;SDS011;7285;50.894;5.462;2024-02-28T10:48:55;6.73;;;3.93;;
14400;SDS011;7285;50.894;5.462;2024-02-28T10:51:23;3.37;;;2.50;;
14400;SDS011;7285;50.894;5.462;2024-02-28T10:53:53;3.23;;;3.07;;
14400;SDS011;7285;50.894;5.462;2024-02-28T10:56:35;2.87;;;2.67;;
14400;SDS011;7285;50.894;5.462;2024-02-28T10:59:01;5.03;;;2.87;;
14400;SDS011;7285;50.894;5.462;2024-02-28T11:01:32;3.47;;;3.27;;
14400;SDS011;7285;50.894;5.462;2024-02-28T11:03:59;4.50;;;3.23;;
14400;SDS011;7285;50.894;5.462;2024-02-28T11:06:26;2.50;;;2.30;;
14400;SDS011;7285;50.894;5.462;2024-02-28T11:08:53;5.27;;;1.57;;
14400;SDS011;7285;50.894;5.462;2024-02-28T11:11:21;3.70;;;1.53;;
14400;SDS011;7285;50.894;5.462;2024-02-28T11:13:53;1.87;;;1.80;;
14400;SDS011;7285;50.894;5.462;2024-02-28T11:16:27;8.20;;;3.13;;
14400;SDS011;7285;50.894;5.462;2024-02-28T11:18:55;2.40;;;2.30;;
14400;SDS011;7285;50.894;5.462;2024-02-28T11:21:23;3.30;;;3.10;;
14400;SDS011;7285;50.894;5.462;2024-02-28T11:23:56;1.50;;;1.50;;
14400;SDS011;7285;50.894;5.462;2024-02-28T11:26:24;1.90;;;1.73;;
14400;SDS011;7285;50.894;5.462;2024-02-28T11:28:54;2.60;;;2.50;;
14400;SDS011;7285;50.894;5.462;2024-02-28T11:31:21;2.60;;;1.83;;
14400;SDS011;7285;50.894;5.462;2024-02-28T11:33:48;1.87;;;1.77;;
14400;SDS011;7285;50.894;5.462;2024-02-28T11:36:15;3.43;;;3.10;;
14400;SDS011;7285;50.894;5.462;2024-02-28T11:38:42;2.47;;;2.20;;
14400;SDS011;7285;50.894;5.462;2024-02-28T11:41:09;4.53;;;2.33;;
14400;SDS011;7285;50.894;5.462;2024-02-28T11:43:36;1.20;;;1.20;;
14400;SDS011;7285;50.894;5.462;2024-02-28T11:46:08;2.23;;;2.10;;
14400;SDS011;7285;50.894;5.462;2024-02-28T11:48:36;6.83;;;3.40;;
14400;SDS011;7285;50.894;5.462;2024-02-28T11:51:03;2.03;;;1.93;;
14400;SDS011;7285;50.894;5.462;2024-02-28T11:53:30;2.03;;;1.93;;
14400;SDS011;7285;50.894;5.462;2024-02-28T11:55:57;2.93;;;2.43;;
14400;SDS011;7285;50.894;5.462;2024-02-28T11:58:24;2.43;;;2.27;;
14400;SDS011;7285;50.894;5.462;2024-02-28T12:00:51;2.93;;;1.80;;
14400;SDS011;7285;50.894;5.462;2024-02-28T12:03:24;2.40;;;2.30;;
14400;SDS011;7285;50.894;5.462;2024-02-28T12:05:51;1.70;;;1.60;;
14400;SDS011;7285;50.894;5.462;2024-02-28T12:08:19;1.87;;;1.80;;
14400;SDS011;7285;50.894;5.462;2024-02-28T12:10:46;1.20;;;1.20;;
14400;SDS011;7285;50.894;5.462;2024-02-28T12:13:15;1.73;;;1.63;;
14400;SDS011;7285;50.894;5.462;2024-02-28T12:15:43;1.33;;;1.33;;
14400;SDS011;7285;50.894;5.462;2024-02-28T12:18:14;1.27;;;1.27;;
14400;SDS011;7285;50.894;5.462;2024-02-28T12:20:42;2.70;;;1.93;;
14400;SDS011;7285;50.894;5.462;2024-02-28T12:23:10;2.87;;;2.77;;
14400;SDS011;7285;50.894;5.462;2024-02-28T12:25:37;1.73;;;1.73;;
14400;SDS011;7285;50.894;5.462;2024-02-28T12:28:04;1.23;;;1.23;;
14400;SDS011;7285;50.894;5.462;2024-02-28T12:30:38;1.10;;;1.10;;
14400;SDS011;7285;50.894;5.462;2024-02-28T12:33:06;1.20;;;1.20;;
14400;SDS011;7285;50.894;5.462;2024-02-28T12:35:33;1.60;;;1.50;;
14400;SDS011;7285;50.894;5.462;2024-02-28T12:38:01;0.90;;;0.90;;
14400;SDS011;7285;50.894;5.462;2024-02-28T12:40:28;1.50;;;1.40;;
14400;SDS011;7285;50.894;5.462;2024-02-28T12:42:55;0.90;;;0.90;;
14400;SDS011;7285;50.894;5.462;2024-02-28T12:45:22;1.10;;;1.10;;
14400;SDS011;7285;50.894;5.462;2024-02-28T12:47:49;0.80;;;0.80;;
14400;SDS011;7285;50.894;5.462;2024-02-28T12:50:15;1.17;;;1.17;;
14400;SDS011;7285;50.894;5.462;2024-02-28T12:52:43;1.10;;;1.00;;
14400;SDS011;7285;50.894;5.462;2024-02-28T12:55:11;1.07;;;1.07;;
14400;SDS011;7285;50.894;5.462;2024-02-28T12:57:39;0.60;;;0.60;;
14400;SDS011;7285;50.894;5.462;2024-02-28T13:00:07;0.60;;;0.60;;
14400;SDS011;7285;50.894;5.462;2024-02-28T13:02:34;0.70;;;0.70;;
14400;SDS011;7285;50.894;5.462;2024-02-28T13:05:01;0.53;;;0.53;;
14400;SDS011;7285;50.894;5.462;2024-02-28T13:07:28;0.60;;;0.60;;
14400;SDS011;7285;50.894;5.462;2024-02-28T13:09:55;0.60;;;0.60;;
14400;SDS011;7285;50.894;5.462;2024-02-28T13:12:23;1.40;;;0.70;;
14400;SDS011;7285;50.894;5.462;2024-02-28T13:14:50;0.60;;;0.60;;
14400;SDS011;7285;50.894;5.462;2024-02-28T13:17:17;0.60;;;0.60;;
14400;SDS011;7285;50.894;5.462;2024-02-28T13:19:44;0.70;;;0.70;;
14400;SDS011;7285;50.894;5.462;2024-02-28T13:22:11;0.60;;;0.60;;
14400;SDS011;7285;50.894;5.462;2024-02-28T13:24:38;0.50;;;0.50;;
14400;SDS011;7285;50.894;5.462;2024-02-28T13:27:05;0.60;;;0.60;;
14400;SDS011;7285;50.894;5.462;2024-02-28T13:29:34;0.50;;;0.50;;
14400;SDS011;7285;50.894;5.462;2024-02-28T13:32:01;0.60;;;0.60;;
14400;SDS011;7285;50.894;5.462;2024-02-28T13:34:28;0.60;;;0.60;;
14400;SDS011;7285;50.894;5.462;2024-02-28T13:36:55;0.50;;;0.50;;
14400;SDS011;7285;50.894;5.462;2024-02-28T13:39:23;0.60;;;0.60;;
14400;SDS011;7285;50.894;5.462;2024-02-28T13:41:51;0.50;;;0.50;;
14400;SDS011;7285;50.894;5.462;2024-02-28T13:44:18;0.57;;;0.57;;
14400;SDS011;7285;50.894;5.462;2024-02-28T13:46:47;0.60;;;0.60;;
14400;SDS011;7285;50.894;5.462;2024-02-28T13:49:14;0.50;;;0.50;;
14400;SDS011;7285;50.894;5.462;2024-02-28T13:51:43;0.50;;;0.50;;
14400;SDS011;7285;50.894;5.462;2024-02-28T13:54:10;0.60;;;0.60;;
14400;SDS011;7285;50.894;5.462;2024-02-28T13:56:37;0.50;;;0.50;;
14400;SDS011;7285;50.894;5.462;2024-02-28T13:59:03;0.70;;;0.70;;
14400;SDS011;7285;50.894;5.462;2024-02-28T14:01:31;0.50;;;0.50;;
14400;SDS011;7285;50.894;5.462;2024-02-28T14:04:00;0.50;;;0.50;;
14400;SDS011;7285;50.894;5.462;2024-02-28T14:06:26;0.70;;;0.70;;
14400;SDS011;7285;50.894;5.462;2024-02-28T14:08:54;0.50;;;0.50;;
14400;SDS011;7285;50.894;5.462;2024-02-28T14:11:22;0.57;;;0.57;;
14400;SDS011;7285;50.894;5.462;2024-02-28T14:13:49;0.60;;;0.60;;
14400;SDS011;7285;50.894;5.462;2024-02-28T14:16:16;0.53;;;0.53;;
14400;SDS011;7285;50.894;5.462;2024-02-28T14:18:44;0.60;;;0.60;;
14400;SDS011;7285;50.894;5.462;2024-02-28T14:21:12;0.60;;;0.60;;
14400;SDS011;7285;50.894;5.462;2024-02-28T14:23:39;0.60;;;0.60;;
14400;SDS011;7285;50.894;5.462;2024-02-28T14:26:07;0.87;;;0.87;;
14400;SDS011;7285;50.894;5.462;2024-02-28T14:28:34;0.90;;;0.90;;
14400;SDS011;7285;50.894;5.462;2024-02-28T14:31:01;0.50;;;0.50;;
14400;SDS011;7285;50.894;5.462;2024-02-28T14:33:28;0.60;;;0.60;;
14400;SDS011;7285;50.894;5.462;2024-02-28T14:35:55;0.60;;;0.60;;
14400;SDS011;7285;50.894;5.462;2024-02-28T14:38:23;1.07;;;1.07;;
14400;SDS011;7285;50.894;5.462;2024-02-28T14:40:50;1.30;;;1.20;;
14400;SDS011;7285;50.894;5.462;2024-02-28T14:43:17;1.33;;;0.87;;
14400;SDS011;7285;50.894;5.462;2024-02-28T14:45:44;0.77;;;0.77;;
14400;SDS011;7285;50.894;5.462;2024-02-28T14:48:11;0.70;;;0.70;;
14400;SDS011;7285;50.894;5.462;2024-02-28T14:50:38;2.50;;;0.90;;
14400;SDS011;7285;50.894;5.462;2024-02-28T14:53:05;3.93;;;1.63;;
14400;SDS011;7285;50.894;5.462;2024-02-28T14:55:33;1.60;;;1.47;;
14400;SDS011;7285;50.894;5.462;2024-02-28T14:58:00;1.33;;;1.23;;
14400;SDS011;7285;50.894;5.462;2024-02-28T15:00:27;3.70;;;1.67;;
14400;SDS011;7285;50.894;5.462;2024-02-28T15:02:54;1.00;;;1.00;;